sensor_id;sensor_type;location;lat;lon;timestamp;temperature;humidity
6822;DHT22;3449;48.728;8.968;2023-11-22T00:01:17;6.30;99.90
6822;DHT22;3449;48.728;8.968;2023-11-22T00:03:44;6.30;99.90
6822;DHT22;3449;48.728;8.968;2023-11-22T00:06:11;6.40;99.90
6822;DHT22;3449;48.728;8.968;2023-11-22T00:08:38;6.30;99.90
6822;DHT22;3449;48.728;8.968;2023-11-22T00:11:04;6.30;99.90
6822;DHT22;3449;48.728;8.968;2023-11-22T00:13:33;6.30;99.90
6822;DHT22;3449;48.728;8.968;2023-11-22T00:15:59;6.30;99.90
6822;DHT22;3449;48.728;8.968;2023-11-22T00:18:26;6.20;99.90
6822;DHT22;3449;48.728;8.968;2023-11-22T00:20:53;6.10;99.90
6822;DHT22;3449;48.728;8.968;2023-11-22T00:23:21;5.90;99.90
6822;DHT22;3449;48.728;8.968;2023-11-22T00:25:52;5.70;99.90
6822;DHT22;3449;48.728;8.968;2023-11-22T00:28:19;5.50;99.90
6822;DHT22;3449;48.728;8.968;2023-11-22T00:30:47;5.30;99.90
6822;DHT22;3449;48.728;8.968;2023-11-22T00:33:14;5.10;99.90
6822;DHT22;3449;48.728;8.968;2023-11-22T00:35:43;4.90;99.90
6822;DHT22;3449;48.728;8.968;2023-11-22T00:38:10;4.90;99.90
6822;DHT22;3449;48.728;8.968;2023-11-22T00:40:37;4.80;99.90
6822;DHT22;3449;48.728;8.968;2023-11-22T00:43:04;4.70;99.90
6822;DHT22;3449;48.728;8.968;2023-11-22T00:45:31;4.60;99.90
6822;DHT22;3449;48.728;8.968;2023-11-22T00:48:00;4.50;99.90
6822;DHT22;3449;48.728;8.968;2023-11-22T00:50:27;4.40;99.90
6822;DHT22;3449;48.728;8.968;2023-11-22T00:52:54;4.30;99.90
6822;DHT22;3449;48.728;8.968;2023-11-22T00:55:21;4.30;99.90
6822;DHT22;3449;48.728;8.968;2023-11-22T00:57:48;4.30;99.90
6822;DHT22;3449;48.728;8.968;2023-11-22T01:00:15;4.20;99.90
6822;DHT22;3449;48.728;8.968;2023-11-22T01:02:42;4.10;99.90
6822;DHT22;3449;48.728;8.968;2023-11-22T01:05:11;4.10;99.90
6822;DHT22;3449;48.728;8.968;2023-11-22T01:07:38;4.10;99.90
6822;DHT22;3449;48.728;8.968;2023-11-22T01:10:06;4.10;99.90
6822;DHT22;3449;48.728;8.968;2023-11-22T01:12:33;3.90;99.90
6822;DHT22;3449;48.728;8.968;2023-11-22T01:15:00;3.90;99.90
6822;DHT22;3449;48.728;8.968;2023-11-22T01:17:27;4.00;99.90
6822;DHT22;3449;48.728;8.968;2023-11-22T01:19:54;3.90;99.90
6822;DHT22;3449;48.728;8.968;2023-11-22T01:22:22;3.90;99.90
6822;DHT22;3449;48.728;8.968;2023-11-22T01:24:49;3.80;99.90
6822;DHT22;3449;48.728;8.968;2023-11-22T01:27:15;3.80;99.90
6822;DHT22;3449;48.728;8.968;2023-11-22T01:29:42;3.70;99.90
6822;DHT22;3449;48.728;8.968;2023-11-22T01:32:09;3.60;99.90
6822;DHT22;3449;48.728;8.968;2023-11-22T01:34:36;3.60;99.90
6822;DHT22;3449;48.728;8.968;2023-11-22T01:37:03;3.50;99.90
6822;DHT22;3449;48.728;8.968;2023-11-22T01:39:31;3.50;99.90
6822;DHT22;3449;48.728;8.968;2023-11-22T01:41:58;3.50;99.90
6822;DHT22;3449;48.728;8.968;2023-11-22T01:44:25;3.40;99.90
6822;DHT22;3449;48.728;8.968;2023-11-22T01:46:52;3.40;99.90
6822;DHT22;3449;48.728;8.968;2023-11-22T01:49:19;3.30;99.90
6822;DHT22;3449;48.728;8.968;2023-11-22T01:51:46;3.30;99.90
6822;DHT22;3449;48.728;8.968;2023-11-22T01:54:14;3.20;99.90
6822;DHT22;3449;48.728;8.968;2023-11-22T01:56:44;3.20;99.90
6822;DHT22;3449;48.728;8.968;2023-11-22T01:59:11;3.20;99.90
6822;DHT22;3449;48.728;8.968;2023-11-22T02:01:40;3.20;99.90
6822;DHT22;3449;48.728;8.968;2023-11-22T02:04:07;3.10;99.90
6822;DHT22;3449;48.728;8.968;2023-11-22T02:06:35;3.20;99.90
6822;DHT22;3449;48.728;8.968;2023-11-22T02:09:02;3.20;99.90
6822;DHT22;3449;48.728;8.968;2023-11-22T02:11:29;3.20;99.90
6822;DHT22;3449;48.728;8.968;2023-11-22T02:13:57;3.20;99.90
6822;DHT22;3449;48.728;8.968;2023-11-22T02:16:24;3.10;99.90
6822;DHT22;3449;48.728;8.968;2023-11-22T02:18:51;3.10;99.90
6822;DHT22;3449;48.728;8.968;2023-11-22T02:21:18;3.10;99.90
6822;DHT22;3449;48.728;8.968;2023-11-22T02:23:48;3.10;99.90
6822;DHT22;3449;48.728;8.968;2023-11-22T02:26:15;3.00;99.90
6822;DHT22;3449;48.728;8.968;2023-11-22T02:28:43;3.00;99.90
6822;DHT22;3449;48.728;8.968;2023-11-22T02:31:10;3.00;99.90
6822;DHT22;3449;48.728;8.968;2023-11-22T02:33:37;2.90;99.90
6822;DHT22;3449;48.728;8.968;2023-11-22T02:36:04;2.90;99.90
6822;DHT22;3449;48.728;8.968;2023-11-22T02:38:31;2.90;99.90
6822;DHT22;3449;48.728;8.968;2023-11-22T02:41:01;2.90;99.90
6822;DHT22;3449;48.728;8.968;2023-11-22T02:43:29;2.90;99.90
6822;DHT22;3449;48.728;8.968;2023-11-22T02:45:56;2.90;99.90
6822;DHT22;3449;48.728;8.968;2023-11-22T02:48:23;3.00;99.90
6822;DHT22;3449;48.728;8.968;2023-11-22T02:50:50;3.10;99.90
6822;DHT22;3449;48.728;8.968;2023-11-22T02:53:19;2.90;99.90
6822;DHT22;3449;48.728;8.968;2023-11-22T02:55:46;2.80;99.90
6822;DHT22;3449;48.728;8.968;2023-11-22T02:58:15;2.70;99.90
6822;DHT22;3449;48.728;8.968;2023-11-22T03:00:42;2.60;99.90
6822;DHT22;3449;48.728;8.968;2023-11-22T03:03:09;2.60;99.90
6822;DHT22;3449;48.728;8.968;2023-11-22T03:05:37;2.60;99.90
6822;DHT22;3449;48.728;8.968;2023-11-22T03:08:04;2.60;99.90
6822;DHT22;3449;48.728;8.968;2023-11-22T03:10:32;2.50;99.90
6822;DHT22;3449;48.728;8.968;2023-11-22T03:12:59;2.50;99.90
6822;DHT22;3449;48.728;8.968;2023-11-22T03:15:27;2.40;99.90
6822;DHT22;3449;48.728;8.968;2023-11-22T03:17:54;2.40;99.90
6822;DHT22;3449;48.728;8.968;2023-11-22T03:20:21;2.40;99.90
6822;DHT22;3449;48.728;8.968;2023-11-22T03:22:48;2.30;99.90
6822;DHT22;3449;48.728;8.968;2023-11-22T03:25:16;2.20;99.90
6822;DHT22;3449;48.728;8.968;2023-11-22T03:27:44;2.20;99.90
6822;DHT22;3449;48.728;8.968;2023-11-22T03:30:13;2.20;99.90
6822;DHT22;3449;48.728;8.968;2023-11-22T03:32:42;2.20;99.90
6822;DHT22;3449;48.728;8.968;2023-11-22T03:35:09;2.20;99.90
6822;DHT22;3449;48.728;8.968;2023-11-22T03:37:37;2.20;99.90
6822;DHT22;3449;48.728;8.968;2023-11-22T03:40:05;2.20;99.90
6822;DHT22;3449;48.728;8.968;2023-11-22T03:42:32;2.10;99.90
6822;DHT22;3449;48.728;8.968;2023-11-22T03:44:59;2.20;99.90
6822;DHT22;3449;48.728;8.968;2023-11-22T03:47:26;2.10;99.90
6822;DHT22;3449;48.728;8.968;2023-11-22T03:49:54;2.10;99.90
6822;DHT22;3449;48.728;8.968;2023-11-22T03:52:21;2.00;99.90
6822;DHT22;3449;48.728;8.968;2023-11-22T03:54:48;2.00;99.90
6822;DHT22;3449;48.728;8.968;2023-11-22T03:57:15;2.00;99.90
6822;DHT22;3449;48.728;8.968;2023-11-22T03:59:42;2.10;99.90
6822;DHT22;3449;48.728;8.968;2023-11-22T04:02:08;2.00;99.90
6822;DHT22;3449;48.728;8.968;2023-11-22T04:04:36;2.10;99.90
6822;DHT22;3449;48.728;8.968;2023-11-22T04:07:06;2.10;99.90
6822;DHT22;3449;48.728;8.968;2023-11-22T04:09:33;2.10;99.90
6822;DHT22;3449;48.728;8.968;2023-11-22T04:12:00;2.20;99.90
6822;DHT22;3449;48.728;8.968;2023-11-22T04:14:27;2.20;99.90
6822;DHT22;3449;48.728;8.968;2023-11-22T04:16:54;2.20;99.90
6822;DHT22;3449;48.728;8.968;2023-11-22T04:19:21;2.20;99.90
6822;DHT22;3449;48.728;8.968;2023-11-22T04:21:48;2.20;99.90
6822;DHT22;3449;48.728;8.968;2023-11-22T04:24:16;2.30;99.90
6822;DHT22;3449;48.728;8.968;2023-11-22T04:26:43;2.30;99.90
6822;DHT22;3449;48.728;8.968;2023-11-22T04:29:10;2.30;99.90
6822;DHT22;3449;48.728;8.968;2023-11-22T04:31:36;2.20;99.90
6822;DHT22;3449;48.728;8.968;2023-11-22T04:34:03;2.20;99.90
6822;DHT22;3449;48.728;8.968;2023-11-22T04:36:30;2.20;99.90
6822;DHT22;3449;48.728;8.968;2023-11-22T04:38:57;2.20;99.90
6822;DHT22;3449;48.728;8.968;2023-11-22T04:41:25;2.20;99.90
6822;DHT22;3449;48.728;8.968;2023-11-22T04:43:52;2.20;99.90
6822;DHT22;3449;48.728;8.968;2023-11-22T04:46:19;2.20;99.90
6822;DHT22;3449;48.728;8.968;2023-11-22T04:48:45;2.20;99.90
6822;DHT22;3449;48.728;8.968;2023-11-22T04:51:16;2.20;99.90
6822;DHT22;3449;48.728;8.968;2023-11-22T04:53:44;2.10;99.90
6822;DHT22;3449;48.728;8.968;2023-11-22T04:56:10;2.10;99.90
6822;DHT22;3449;48.728;8.968;2023-11-22T04:58:39;2.00;99.90
6822;DHT22;3449;48.728;8.968;2023-11-22T05:01:05;2.10;99.90
6822;DHT22;3449;48.728;8.968;2023-11-22T05:03:36;2.00;99.90
6822;DHT22;3449;48.728;8.968;2023-11-22T05:06:03;2.10;99.90
6822;DHT22;3449;48.728;8.968;2023-11-22T05:08:30;2.00;99.90
6822;DHT22;3449;48.728;8.968;2023-11-22T05:10:57;2.00;99.90
6822;DHT22;3449;48.728;8.968;2023-11-22T05:13:24;2.00;99.90
6822;DHT22;3449;48.728;8.968;2023-11-22T05:15:52;2.00;99.90
6822;DHT22;3449;48.728;8.968;2023-11-22T05:18:19;1.90;99.90
6822;DHT22;3449;48.728;8.968;2023-11-22T05:20:47;2.00;99.90
6822;DHT22;3449;48.728;8.968;2023-11-22T05:23:14;1.90;99.90
6822;DHT22;3449;48.728;8.968;2023-11-22T05:25:41;1.90;99.90
6822;DHT22;3449;48.728;8.968;2023-11-22T05:28:08;1.90;99.90
6822;DHT22;3449;48.728;8.968;2023-11-22T05:30:34;1.90;99.90
6822;DHT22;3449;48.728;8.968;2023-11-22T05:33:03;1.90;99.90
6822;DHT22;3449;48.728;8.968;2023-11-22T05:35:29;1.90;99.90
6822;DHT22;3449;48.728;8.968;2023-11-22T05:37:56;2.00;99.90
6822;DHT22;3449;48.728;8.968;2023-11-22T05:40:23;1.80;99.90
6822;DHT22;3449;48.728;8.968;2023-11-22T05:42:50;1.90;99.90
6822;DHT22;3449;48.728;8.968;2023-11-22T05:45:17;1.90;99.90
6822;DHT22;3449;48.728;8.968;2023-11-22T05:47:44;1.90;99.90
6822;DHT22;3449;48.728;8.968;2023-11-22T05:50:12;1.80;99.90
6822;DHT22;3449;48.728;8.968;2023-11-22T05:52:39;1.80;99.90
6822;DHT22;3449;48.728;8.968;2023-11-22T05:55:07;1.80;99.90
6822;DHT22;3449;48.728;8.968;2023-11-22T05:57:34;1.80;99.90
6822;DHT22;3449;48.728;8.968;2023-11-22T06:00:01;1.80;99.90
6822;DHT22;3449;48.728;8.968;2023-11-22T06:02:28;1.80;99.90
6822;DHT22;3449;48.728;8.968;2023-11-22T06:04:55;1.80;99.90
6822;DHT22;3449;48.728;8.968;2023-11-22T06:07:23;1.80;99.90
6822;DHT22;3449;48.728;8.968;2023-11-22T06:09:50;1.80;99.90
6822;DHT22;3449;48.728;8.968;2023-11-22T06:12:17;1.80;99.90
6822;DHT22;3449;48.728;8.968;2023-11-22T06:14:44;1.80;99.90
6822;DHT22;3449;48.728;8.968;2023-11-22T06:17:12;1.70;99.90
6822;DHT22;3449;48.728;8.968;2023-11-22T06:19:39;1.70;99.90
6822;DHT22;3449;48.728;8.968;2023-11-22T06:22:06;1.70;99.90
6822;DHT22;3449;48.728;8.968;2023-11-22T06:24:35;1.70;99.90
6822;DHT22;3449;48.728;8.968;2023-11-22T06:27:02;1.70;99.90
6822;DHT22;3449;48.728;8.968;2023-11-22T06:29:29;1.70;99.90
6822;DHT22;3449;48.728;8.968;2023-11-22T06:31:56;1.70;99.90
6822;DHT22;3449;48.728;8.968;2023-11-22T06:34:22;1.70;99.90
6822;DHT22;3449;48.728;8.968;2023-11-22T06:36:49;1.70;99.90
6822;DHT22;3449;48.728;8.968;2023-11-22T06:39:16;1.70;99.90
6822;DHT22;3449;48.728;8.968;2023-11-22T06:41:44;1.70;99.90
6822;DHT22;3449;48.728;8.968;2023-11-22T06:44:11;1.70;99.90
6822;DHT22;3449;48.728;8.968;2023-11-22T06:46:38;1.70;99.90
6822;DHT22;3449;48.728;8.968;2023-11-22T06:49:05;1.70;99.90
6822;DHT22;3449;48.728;8.968;2023-11-22T06:51:32;1.70;99.90
6822;DHT22;3449;48.728;8.968;2023-11-22T06:53:59;1.80;99.90
6822;DHT22;3449;48.728;8.968;2023-11-22T06:56:26;1.80;99.90
6822;DHT22;3449;48.728;8.968;2023-11-22T06:58:54;1.70;99.90
6822;DHT22;3449;48.728;8.968;2023-11-22T07:01:23;1.70;99.90
6822;DHT22;3449;48.728;8.968;2023-11-22T07:03:52;1.70;99.90
6822;DHT22;3449;48.728;8.968;2023-11-22T07:06:19;1.80;99.90
6822;DHT22;3449;48.728;8.968;2023-11-22T07:08:48;1.80;99.90
6822;DHT22;3449;48.728;8.968;2023-11-22T07:11:21;1.80;99.90
6822;DHT22;3449;48.728;8.968;2023-11-22T07:13:49;1.80;99.90
6822;DHT22;3449;48.728;8.968;2023-11-22T07:16:18;1.80;99.90
6822;DHT22;3449;48.728;8.968;2023-11-22T07:18:46;1.80;99.90
6822;DHT22;3449;48.728;8.968;2023-11-22T07:21:13;1.80;99.90
6822;DHT22;3449;48.728;8.968;2023-11-22T07:23:39;1.70;99.90
6822;DHT22;3449;48.728;8.968;2023-11-22T07:26:06;1.70;99.90
6822;DHT22;3449;48.728;8.968;2023-11-22T07:28:33;1.70;99.90
6822;DHT22;3449;48.728;8.968;2023-11-22T07:31:02;1.70;99.90
6822;DHT22;3449;48.728;8.968;2023-11-22T07:33:32;1.60;99.90
6822;DHT22;3449;48.728;8.968;2023-11-22T07:36:01;1.60;99.90
6822;DHT22;3449;48.728;8.968;2023-11-22T07:38:28;1.50;99.90
6822;DHT22;3449;48.728;8.968;2023-11-22T07:40:56;1.50;99.90
6822;DHT22;3449;48.728;8.968;2023-11-22T07:43:23;1.50;99.90
6822;DHT22;3449;48.728;8.968;2023-11-22T07:45:50;1.40;99.90
6822;DHT22;3449;48.728;8.968;2023-11-22T07:48:17;1.40;99.90
6822;DHT22;3449;48.728;8.968;2023-11-22T07:50:46;1.40;99.90
6822;DHT22;3449;48.728;8.968;2023-11-22T07:53:14;1.30;99.90
6822;DHT22;3449;48.728;8.968;2023-11-22T07:55:43;1.30;99.90
6822;DHT22;3449;48.728;8.968;2023-11-22T07:58:09;1.30;99.90
6822;DHT22;3449;48.728;8.968;2023-11-22T08:00:36;1.20;99.90
6822;DHT22;3449;48.728;8.968;2023-11-22T08:03:03;1.20;99.90
6822;DHT22;3449;48.728;8.968;2023-11-22T08:05:32;1.10;99.90
6822;DHT22;3449;48.728;8.968;2023-11-22T08:08:03;1.20;99.90
6822;DHT22;3449;48.728;8.968;2023-11-22T08:10:32;1.20;99.90
6822;DHT22;3449;48.728;8.968;2023-11-22T08:13:00;1.10;99.90
6822;DHT22;3449;48.728;8.968;2023-11-22T08:15:28;1.10;99.90
6822;DHT22;3449;48.728;8.968;2023-11-22T08:17:57;1.10;99.90
6822;DHT22;3449;48.728;8.968;2023-11-22T08:20:23;1.10;99.90
6822;DHT22;3449;48.728;8.968;2023-11-22T08:22:50;1.10;99.90
6822;DHT22;3449;48.728;8.968;2023-11-22T08:25:19;1.20;99.90
6822;DHT22;3449;48.728;8.968;2023-11-22T08:27:46;1.10;99.90
6822;DHT22;3449;48.728;8.968;2023-11-22T08:30:13;1.10;99.90
6822;DHT22;3449;48.728;8.968;2023-11-22T08:32:42;1.10;99.90
6822;DHT22;3449;48.728;8.968;2023-11-22T08:35:09;1.10;99.90
6822;DHT22;3449;48.728;8.968;2023-11-22T08:37:39;1.10;99.90
6822;DHT22;3449;48.728;8.968;2023-11-22T08:40:08;1.10;99.90
6822;DHT22;3449;48.728;8.968;2023-11-22T08:42:38;1.10;99.90
6822;DHT22;3449;48.728;8.968;2023-11-22T08:45:07;1.20;99.90
6822;DHT22;3449;48.728;8.968;2023-11-22T08:47:35;1.20;99.90
6822;DHT22;3449;48.728;8.968;2023-11-22T08:50:02;1.20;99.90
6822;DHT22;3449;48.728;8.968;2023-11-22T08:52:31;1.20;99.90
6822;DHT22;3449;48.728;8.968;2023-11-22T08:54:57;1.30;99.90
6822;DHT22;3449;48.728;8.968;2023-11-22T08:57:25;1.30;99.90
6822;DHT22;3449;48.728;8.968;2023-11-22T08:59:54;1.30;99.90
6822;DHT22;3449;48.728;8.968;2023-11-22T09:02:21;1.20;99.90
6822;DHT22;3449;48.728;8.968;2023-11-22T09:04:49;1.20;99.90
6822;DHT22;3449;48.728;8.968;2023-11-22T09:07:15;1.30;99.90
6822;DHT22;3449;48.728;8.968;2023-11-22T09:09:43;1.30;99.90
6822;DHT22;3449;48.728;8.968;2023-11-22T09:12:10;1.40;99.90
6822;DHT22;3449;48.728;8.968;2023-11-22T09:14:39;1.30;99.90
6822;DHT22;3449;48.728;8.968;2023-11-22T09:17:08;1.30;99.90
6822;DHT22;3449;48.728;8.968;2023-11-22T09:19:36;1.30;99.90
6822;DHT22;3449;48.728;8.968;2023-11-22T09:22:02;1.20;99.90
6822;DHT22;3449;48.728;8.968;2023-11-22T09:24:28;1.20;99.90
6822;DHT22;3449;48.728;8.968;2023-11-22T09:26:55;1.20;99.90
6822;DHT22;3449;48.728;8.968;2023-11-22T09:29:22;1.30;99.90
6822;DHT22;3449;48.728;8.968;2023-11-22T09:31:49;1.40;99.90
6822;DHT22;3449;48.728;8.968;2023-11-22T09:34:19;1.40;99.90
6822;DHT22;3449;48.728;8.968;2023-11-22T09:36:46;1.50;99.90
6822;DHT22;3449;48.728;8.968;2023-11-22T09:39:13;1.50;99.90
6822;DHT22;3449;48.728;8.968;2023-11-22T09:41:39;1.50;99.90
6822;DHT22;3449;48.728;8.968;2023-11-22T09:44:06;1.60;99.90
6822;DHT22;3449;48.728;8.968;2023-11-22T09:46:36;1.60;99.90
6822;DHT22;3449;48.728;8.968;2023-11-22T09:49:08;1.60;99.90
6822;DHT22;3449;48.728;8.968;2023-11-22T09:51:39;1.60;99.90
6822;DHT22;3449;48.728;8.968;2023-11-22T09:54:09;1.60;99.90
6822;DHT22;3449;48.728;8.968;2023-11-22T09:56:40;1.60;99.90
6822;DHT22;3449;48.728;8.968;2023-11-22T09:59:12;1.70;99.90
6822;DHT22;3449;48.728;8.968;2023-11-22T10:01:40;1.70;99.90
6822;DHT22;3449;48.728;8.968;2023-11-22T10:04:07;1.70;99.90
6822;DHT22;3449;48.728;8.968;2023-11-22T10:06:34;1.70;99.90
6822;DHT22;3449;48.728;8.968;2023-11-22T10:09:03;1.70;99.90
6822;DHT22;3449;48.728;8.968;2023-11-22T10:11:33;1.70;99.90
6822;DHT22;3449;48.728;8.968;2023-11-22T10:14:01;1.70;99.90
6822;DHT22;3449;48.728;8.968;2023-11-22T10:16:29;1.70;99.90
6822;DHT22;3449;48.728;8.968;2023-11-22T10:18:55;1.60;99.90
6822;DHT22;3449;48.728;8.968;2023-11-22T10:21:26;1.60;99.90
6822;DHT22;3449;48.728;8.968;2023-11-22T10:23:54;1.50;99.90
6822;DHT22;3449;48.728;8.968;2023-11-22T10:26:23;1.60;99.90
6822;DHT22;3449;48.728;8.968;2023-11-22T10:28:53;1.50;99.90
6822;DHT22;3449;48.728;8.968;2023-11-22T10:31:20;1.50;99.90
6822;DHT22;3449;48.728;8.968;2023-11-22T10:33:48;1.50;99.90
6822;DHT22;3449;48.728;8.968;2023-11-22T10:36:16;1.60;99.90
6822;DHT22;3449;48.728;8.968;2023-11-22T10:38:46;1.60;99.90
6822;DHT22;3449;48.728;8.968;2023-11-22T10:41:14;1.50;99.90
6822;DHT22;3449;48.728;8.968;2023-11-22T10:43:43;1.60;99.90
6822;DHT22;3449;48.728;8.968;2023-11-22T10:46:12;1.50;99.90
6822;DHT22;3449;48.728;8.968;2023-11-22T10:48:39;1.60;99.90
6822;DHT22;3449;48.728;8.968;2023-11-22T10:51:12;1.70;99.90
6822;DHT22;3449;48.728;8.968;2023-11-22T10:53:45;1.60;99.90
6822;DHT22;3449;48.728;8.968;2023-11-22T10:56:15;1.70;99.90
6822;DHT22;3449;48.728;8.968;2023-11-22T10:58:48;1.60;99.90
6822;DHT22;3449;48.728;8.968;2023-11-22T11:01:16;1.60;99.90
6822;DHT22;3449;48.728;8.968;2023-11-22T11:03:49;1.60;99.90
6822;DHT22;3449;48.728;8.968;2023-11-22T11:06:24;1.70;99.90
6822;DHT22;3449;48.728;8.968;2023-11-22T11:08:55;1.80;99.90
6822;DHT22;3449;48.728;8.968;2023-11-22T11:11:23;1.90;99.90
6822;DHT22;3449;48.728;8.968;2023-11-22T11:13:52;1.80;99.90
6822;DHT22;3449;48.728;8.968;2023-11-22T11:16:19;1.80;99.90
6822;DHT22;3449;48.728;8.968;2023-11-22T11:18:47;1.80;99.90
6822;DHT22;3449;48.728;8.968;2023-11-22T11:21:15;1.80;99.90
6822;DHT22;3449;48.728;8.968;2023-11-22T11:23:42;1.80;99.90
6822;DHT22;3449;48.728;8.968;2023-11-22T11:26:15;1.80;99.90
6822;DHT22;3449;48.728;8.968;2023-11-22T11:28:44;1.80;99.90
6822;DHT22;3449;48.728;8.968;2023-11-22T11:31:12;1.80;99.90
6822;DHT22;3449;48.728;8.968;2023-11-22T11:33:54;1.90;99.90
6822;DHT22;3449;48.728;8.968;2023-11-22T11:36:22;1.90;99.90
6822;DHT22;3449;48.728;8.968;2023-11-22T11:38:51;1.80;99.90
6822;DHT22;3449;48.728;8.968;2023-11-22T11:41:18;1.90;99.90
6822;DHT22;3449;48.728;8.968;2023-11-22T11:43:46;1.90;99.90
6822;DHT22;3449;48.728;8.968;2023-11-22T11:46:15;1.90;99.90
6822;DHT22;3449;48.728;8.968;2023-11-22T11:48:43;1.80;99.90
6822;DHT22;3449;48.728;8.968;2023-11-22T11:51:13;1.80;99.90
6822;DHT22;3449;48.728;8.968;2023-11-22T11:53:40;1.90;99.90
6822;DHT22;3449;48.728;8.968;2023-11-22T11:56:08;1.90;99.90
6822;DHT22;3449;48.728;8.968;2023-11-22T11:58:35;1.90;99.90
6822;DHT22;3449;48.728;8.968;2023-11-22T12:01:04;1.80;99.90
6822;DHT22;3449;48.728;8.968;2023-11-22T12:03:32;1.80;99.90
6822;DHT22;3449;48.728;8.968;2023-11-22T12:05:59;1.80;99.90
6822;DHT22;3449;48.728;8.968;2023-11-22T12:08:26;1.80;99.90
6822;DHT22;3449;48.728;8.968;2023-11-22T12:10:56;1.80;99.90
6822;DHT22;3449;48.728;8.968;2023-11-22T12:13:25;1.80;99.90
6822;DHT22;3449;48.728;8.968;2023-11-22T12:15:52;1.80;99.90
6822;DHT22;3449;48.728;8.968;2023-11-22T12:18:20;1.80;99.90
6822;DHT22;3449;48.728;8.968;2023-11-22T12:20:56;1.80;99.90
6822;DHT22;3449;48.728;8.968;2023-11-22T12:23:23;1.80;99.90
6822;DHT22;3449;48.728;8.968;2023-11-22T12:25:54;1.80;99.90
6822;DHT22;3449;48.728;8.968;2023-11-22T12:28:23;1.80;99.90
6822;DHT22;3449;48.728;8.968;2023-11-22T12:30:50;1.80;99.90
6822;DHT22;3449;48.728;8.968;2023-11-22T12:33:17;1.80;99.90
6822;DHT22;3449;48.728;8.968;2023-11-22T12:35:45;1.80;99.90
6822;DHT22;3449;48.728;8.968;2023-11-22T12:38:13;1.80;99.90
6822;DHT22;3449;48.728;8.968;2023-11-22T12:40:44;1.80;99.90
6822;DHT22;3449;48.728;8.968;2023-11-22T12:43:12;1.80;99.90
6822;DHT22;3449;48.728;8.968;2023-11-22T12:45:40;1.80;99.90
6822;DHT22;3449;48.728;8.968;2023-11-22T12:48:22;1.90;99.90
6822;DHT22;3449;48.728;8.968;2023-11-22T12:50:56;1.90;99.90
6822;DHT22;3449;48.728;8.968;2023-11-22T12:53:24;1.80;99.90
6822;DHT22;3449;48.728;8.968;2023-11-22T12:55:54;1.80;99.90
6822;DHT22;3449;48.728;8.968;2023-11-22T12:58:22;1.80;99.90
6822;DHT22;3449;48.728;8.968;2023-11-22T13:00:51;1.80;99.90
6822;DHT22;3449;48.728;8.968;2023-11-22T13:03:24;1.80;99.90
6822;DHT22;3449;48.728;8.968;2023-11-22T13:05:51;1.80;99.90
6822;DHT22;3449;48.728;8.968;2023-11-22T13:08:19;1.80;99.90
6822;DHT22;3449;48.728;8.968;2023-11-22T13:10:49;1.80;99.90
6822;DHT22;3449;48.728;8.968;2023-11-22T13:13:19;1.80;99.90
6822;DHT22;3449;48.728;8.968;2023-11-22T13:15:46;1.80;99.90
6822;DHT22;3449;48.728;8.968;2023-11-22T13:18:13;1.80;99.90
6822;DHT22;3449;48.728;8.968;2023-11-22T13:20:40;1.80;99.90
6822;DHT22;3449;48.728;8.968;2023-11-22T13:23:08;1.80;99.90
6822;DHT22;3449;48.728;8.968;2023-11-22T13:25:35;1.80;99.90
6822;DHT22;3449;48.728;8.968;2023-11-22T13:28:04;1.80;99.90
6822;DHT22;3449;48.728;8.968;2023-11-22T13:30:31;1.80;99.90
6822;DHT22;3449;48.728;8.968;2023-11-22T13:32:58;1.80;99.90
6822;DHT22;3449;48.728;8.968;2023-11-22T13:35:25;1.80;99.90
6822;DHT22;3449;48.728;8.968;2023-11-22T13:37:56;1.70;99.90
6822;DHT22;3449;48.728;8.968;2023-11-22T13:40:23;1.80;99.90
6822;DHT22;3449;48.728;8.968;2023-11-22T13:42:53;1.70;99.90
6822;DHT22;3449;48.728;8.968;2023-11-22T13:45:21;1.80;99.90
6822;DHT22;3449;48.728;8.968;2023-11-22T13:47:49;1.90;99.90
6822;DHT22;3449;48.728;8.968;2023-11-22T13:50:21;1.90;99.90
6822;DHT22;3449;48.728;8.968;2023-11-22T13:52:49;1.90;99.90
6822;DHT22;3449;48.728;8.968;2023-11-22T13:55:17;1.90;99.90
6822;DHT22;3449;48.728;8.968;2023-11-22T13:57:48;1.90;99.90
6822;DHT22;3449;48.728;8.968;2023-11-22T14:00:16;1.90;99.90
6822;DHT22;3449;48.728;8.968;2023-11-22T14:02:46;1.90;99.90
6822;DHT22;3449;48.728;8.968;2023-11-22T14:05:14;1.90;99.90
6822;DHT22;3449;48.728;8.968;2023-11-22T14:07:41;2.10;99.90
6822;DHT22;3449;48.728;8.968;2023-11-22T14:10:08;1.80;99.90
6822;DHT22;3449;48.728;8.968;2023-11-22T14:12:36;1.90;99.90
6822;DHT22;3449;48.728;8.968;2023-11-22T14:15:04;1.90;99.90
6822;DHT22;3449;48.728;8.968;2023-11-22T14:17:31;1.90;99.90
6822;DHT22;3449;48.728;8.968;2023-11-22T14:20:00;1.90;99.90
6822;DHT22;3449;48.728;8.968;2023-11-22T14:22:26;1.90;99.90
6822;DHT22;3449;48.728;8.968;2023-11-22T14:24:53;1.90;99.90
6822;DHT22;3449;48.728;8.968;2023-11-22T14:27:21;1.90;99.90
6822;DHT22;3449;48.728;8.968;2023-11-22T14:29:48;1.90;99.90
6822;DHT22;3449;48.728;8.968;2023-11-22T14:32:16;1.80;99.90
6822;DHT22;3449;48.728;8.968;2023-11-22T14:34:45;1.80;99.90
6822;DHT22;3449;48.728;8.968;2023-11-22T14:37:13;1.80;99.90
6822;DHT22;3449;48.728;8.968;2023-11-22T14:39:41;1.80;99.90
6822;DHT22;3449;48.728;8.968;2023-11-22T14:42:08;1.80;99.90
6822;DHT22;3449;48.728;8.968;2023-11-22T14:44:35;1.80;99.90
6822;DHT22;3449;48.728;8.968;2023-11-22T14:47:02;1.80;99.90
6822;DHT22;3449;48.728;8.968;2023-11-22T14:49:32;1.90;99.90
6822;DHT22;3449;48.728;8.968;2023-11-22T14:51:59;1.80;99.90
6822;DHT22;3449;48.728;8.968;2023-11-22T14:54:27;1.70;99.90
6822;DHT22;3449;48.728;8.968;2023-11-22T14:56:54;1.70;99.90
6822;DHT22;3449;48.728;8.968;2023-11-22T14:59:24;1.70;99.90
6822;DHT22;3449;48.728;8.968;2023-11-22T15:01:51;1.70;99.90
6822;DHT22;3449;48.728;8.968;2023-11-22T15:04:19;1.70;99.90
6822;DHT22;3449;48.728;8.968;2023-11-22T15:06:46;1.70;99.90
6822;DHT22;3449;48.728;8.968;2023-11-22T15:09:13;1.60;99.90
6822;DHT22;3449;48.728;8.968;2023-11-22T15:11:42;1.60;99.90
6822;DHT22;3449;48.728;8.968;2023-11-22T15:14:09;1.70;99.90
6822;DHT22;3449;48.728;8.968;2023-11-22T15:16:36;1.70;99.90
6822;DHT22;3449;48.728;8.968;2023-11-22T15:19:03;1.70;99.90
6822;DHT22;3449;48.728;8.968;2023-11-22T15:21:32;1.70;99.90
6822;DHT22;3449;48.728;8.968;2023-11-22T15:23:59;1.70;99.90
6822;DHT22;3449;48.728;8.968;2023-11-22T15:26:26;1.70;99.90
6822;DHT22;3449;48.728;8.968;2023-11-22T15:28:55;1.60;99.90
6822;DHT22;3449;48.728;8.968;2023-11-22T15:31:22;1.60;99.90
6822;DHT22;3449;48.728;8.968;2023-11-22T15:33:49;1.60;99.90
6822;DHT22;3449;48.728;8.968;2023-11-22T15:36:16;1.60;99.90
6822;DHT22;3449;48.728;8.968;2023-11-22T15:38:43;1.60;99.90
6822;DHT22;3449;48.728;8.968;2023-11-22T15:41:10;1.60;99.90
6822;DHT22;3449;48.728;8.968;2023-11-22T15:43:39;1.70;99.90
6822;DHT22;3449;48.728;8.968;2023-11-22T15:46:11;1.60;99.90
6822;DHT22;3449;48.728;8.968;2023-11-22T15:48:40;1.60;99.90
6822;DHT22;3449;48.728;8.968;2023-11-22T15:51:07;1.60;99.90
6822;DHT22;3449;48.728;8.968;2023-11-22T15:53:37;1.60;99.90
6822;DHT22;3449;48.728;8.968;2023-11-22T15:56:04;1.60;99.90
6822;DHT22;3449;48.728;8.968;2023-11-22T15:58:33;1.60;99.90
6822;DHT22;3449;48.728;8.968;2023-11-22T16:01:00;1.60;99.90
6822;DHT22;3449;48.728;8.968;2023-11-22T16:03:30;1.60;99.90
6822;DHT22;3449;48.728;8.968;2023-11-22T16:05:58;1.50;99.90
6822;DHT22;3449;48.728;8.968;2023-11-22T16:08:26;1.60;99.90
6822;DHT22;3449;48.728;8.968;2023-11-22T16:10:52;1.60;99.90
6822;DHT22;3449;48.728;8.968;2023-11-22T16:13:19;1.60;99.90
6822;DHT22;3449;48.728;8.968;2023-11-22T16:15:46;1.60;99.90
6822;DHT22;3449;48.728;8.968;2023-11-22T16:18:14;1.70;99.90
6822;DHT22;3449;48.728;8.968;2023-11-22T16:20:44;1.70;99.90